Time;durP1;ratioP1;P1;durP2;ratioP2;P2;SDS_P1;SDS_P2;PMS_P1;PMS_P2;Temp;Humidity;BMP_temperature;BMP_pressure;BME280_temperature;BME280_humidity;BME280_pressure;Samples;Min_cycle;Max_cycle;Signal;HPM_P1;HPM_P2
2022/02/14 00:00:55;;;;;;;6.40;4.23;;;7.90;1.00;;;;;;5091171;28;20642;-71
2022/02/14 00:03:21;;;;;;;6.50;4.00;;;8.00;1.00;;;;;;5084645;28;20197;-71
2022/02/14 00:05:51;;;;;;;9.50;4.30;;;7.90;1.00;;;;;;5090670;28;20201;-71
2022/02/14 00:08:18;;;;;;;8.83;3.97;;;8.00;1.00;;;;;;5092696;28;20225;-71
2022/02/14 00:10:45;;;;;;;8.30;3.67;;;8.30;1.00;;;;;;5091418;28;20252;-71
2022/02/14 00:13:12;;;;;;;6.37;3.50;;;8.20;1.00;;;;;;5092974;28;20197;-70
2022/02/14 00:15:41;;;;;;;6.87;3.80;;;8.00;1.00;;;;;;5092254;28;20198;-71
2022/02/14 00:18:08;;;;;;;6.87;3.87;;;8.00;1.00;;;;;;5091472;28;20715;-71
2022/02/14 00:20:35;;;;;;;7.17;4.00;;;7.90;1.00;;;;;;5090820;28;20198;-68
2022/02/14 00:23:03;;;;;;;7.67;3.70;;;7.90;1.00;;;;;;5091039;28;20221;-69
2022/02/14 00:25:30;;;;;;;6.10;3.60;;;8.00;1.00;;;;;;5090148;28;20190;-68
2022/02/14 00:27:57;;;;;;;8.00;3.63;;;8.10;1.00;;;;;;5091680;28;20270;-68
2022/02/14 00:30:24;;;;;;;6.03;3.53;;;8.10;1.00;;;;;;5089873;28;20547;-68
2022/02/14 00:32:51;;;;;;;7.57;3.77;;;8.10;1.00;;;;;;5089783;28;20339;-69
2022/02/14 00:35:18;;;;;;;7.67;3.60;;;8.20;1.00;;;;;;5090888;28;20247;-68
2022/02/14 00:37:45;;;;;;;8.57;4.00;;;8.20;1.00;;;;;;5091291;28;20202;-68
2022/02/14 00:40:14;;;;;;;6.07;3.63;;;8.20;1.00;;;;;;5081499;28;20198;-68
2022/02/14 00:42:41;;;;;;;6.30;4.17;;;8.20;1.00;;;;;;5085868;28;20263;-69
2022/02/14 00:45:09;;;;;;;4.83;3.23;;;8.10;1.00;;;;;;5082791;28;20229;-69
2022/02/14 00:47:36;;;;;;;5.80;3.83;;;8.10;1.00;;;;;;5089858;28;20222;-69
2022/02/14 00:50:03;;;;;;;7.67;3.63;;;8.20;1.00;;;;;;5090645;28;20493;-69
2022/02/14 00:52:30;;;;;;;4.70;3.60;;;8.10;1.00;;;;;;5089042;28;20202;-68
2022/02/14 00:54:58;;;;;;;7.67;3.70;;;8.20;1.00;;;;;;5088537;28;20216;-69
2022/02/14 00:57:27;;;;;;;6.17;3.83;;;8.10;1.00;;;;;;5089383;28;20285;-69
2022/02/14 00:59:54;;;;;;;5.27;3.23;;;8.00;1.00;;;;;;5072834;28;20600;-69
2022/02/14 01:02:21;;;;;;;5.33;3.90;;;8.20;1.00;;;;;;5088997;28;20213;-69
2022/02/14 01:04:48;;;;;;;8.70;3.93;;;8.20;1.00;;;;;;5091602;28;20205;-69
2022/02/14 01:07:15;;;;;;;6.60;3.80;;;8.20;1.00;;;;;;5089955;28;20247;-69
2022/02/14 01:09:43;;;;;;;8.90;4.13;;;8.10;1.00;;;;;;5080121;28;20250;-69
2022/02/14 01:12:11;;;;;;;9.23;3.50;;;7.90;1.00;;;;;;5085202;28;20360;-70
2022/02/14 01:14:39;;;;;;;9.07;3.83;;;8.00;1.00;;;;;;5086899;28;20206;-69
2022/02/14 01:17:06;;;;;;;6.83;3.37;;;8.10;1.00;;;;;;5092183;28;20206;-69
2022/02/14 01:19:34;;;;;;;7.27;3.90;;;8.00;1.00;;;;;;5089652;28;20197;-69
2022/02/14 01:22:01;;;;;;;6.50;4.00;;;7.90;1.00;;;;;;5089839;28;20226;-69
2022/02/14 01:24:28;;;;;;;6.90;3.87;;;8.00;1.00;;;;;;5090223;28;20618;-69
2022/02/14 01:26:56;;;;;;;8.40;3.67;;;8.10;1.00;;;;;;5090601;28;20202;-68
2022/02/14 01:29:23;;;;;;;7.97;3.87;;;8.10;1.00;;;;;;5089384;28;20314;-69
2022/02/14 01:31:51;;;;;;;7.10;3.53;;;8.10;1.00;;;;;;5089486;28;20198;-69
2022/02/14 01:34:18;;;;;;;5.97;3.30;;;8.00;1.00;;;;;;5089456;28;20197;-69
2022/02/14 01:36:45;;;;;;;5.93;3.83;;;8.10;1.00;;;;;;5089309;28;20264;-69
2022/02/14 01:39:12;;;;;;;6.63;3.83;;;7.90;1.00;;;;;;5090598;28;21026;-69
2022/02/14 01:41:39;;;;;;;7.13;4.03;;;8.10;1.00;;;;;;5088357;28;20198;-68
2022/02/14 01:44:11;;;;;;;6.90;3.87;;;8.00;1.00;;;;;;5069041;28;20716;-69
2022/02/14 01:46:38;;;;;;;7.60;3.53;;;8.10;1.00;;;;;;5075898;28;20212;-68
2022/02/14 01:49:07;;;;;;;7.90;3.83;;;8.00;1.00;;;;;;5088129;28;20425;-69
2022/02/14 01:51:34;;;;;;;8.13;3.93;;;8.00;1.00;;;;;;5090478;28;20202;-68
2022/02/14 01:54:02;;;;;;;7.40;4.00;;;7.90;1.00;;;;;;5089740;28;20283;-68
2022/02/14 01:56:29;;;;;;;6.87;3.50;;;7.80;1.00;;;;;;5082671;28;20259;-69
2022/02/14 01:58:56;;;;;;;7.50;4.00;;;7.90;1.00;;;;;;5089507;28;20247;-69
2022/02/14 02:01:23;;;;;;;6.73;3.33;;;8.00;1.00;;;;;;5086870;28;20693;-69
2022/02/14 02:03:51;;;;;;;6.67;3.60;;;7.90;1.00;;;;;;5084425;28;20259;-69
2022/02/14 02:06:20;;;;;;;8.93;4.00;;;7.70;1.00;;;;;;5088770;28;20232;-68
2022/02/14 02:08:47;;;;;;;6.50;3.43;;;7.70;1.00;;;;;;5091141;28;20225;-69
2022/02/14 02:13:59;;;;;;;9.47;4.10;;;7.70;1.00;;;;;;5090103;28;20582;-69
2022/02/14 02:16:26;;;;;;;5.50;3.67;;;7.80;1.00;;;;;;5083119;28;20208;-69
2022/02/14 02:18:53;;;;;;;7.63;3.53;;;7.50;1.00;;;;;;5089307;28;20702;-69
2022/02/14 02:21:22;;;;;;;5.00;3.70;;;7.70;1.00;;;;;;5087414;28;20243;-69
2022/02/14 02:23:49;;;;;;;6.37;3.37;;;7.50;1.00;;;;;;5089306;28;20267;-69
2022/02/14 02:26:17;;;;;;;9.83;3.77;;;7.50;1.00;;;;;;5090102;28;20248;-69
2022/02/14 02:28:44;;;;;;;7.60;4.00;;;7.70;1.00;;;;;;5089664;28;20225;-68
2022/02/14 02:31:11;;;;;;;6.40;4.10;;;7.60;1.00;;;;;;5087424;28;20198;-69
2022/02/14 02:33:38;;;;;;;6.73;3.67;;;7.70;1.00;;;;;;5089232;28;20741;-69
2022/02/14 02:36:06;;;;;;;8.97;3.73;;;7.90;1.00;;;;;;5092515;28;20198;-68
2022/02/14 02:38:33;;;;;;;7.13;3.60;;;7.60;1.00;;;;;;5094377;28;20655;-69
2022/02/14 02:41:00;;;;;;;6.83;4.63;;;7.50;1.00;;;;;;5081888;28;20206;-69
2022/02/14 02:43:30;;;;;;;5.87;3.70;;;7.60;1.00;;;;;;5092543;28;20197;-69
2022/02/14 02:45:57;;;;;;;8.93;4.17;;;7.30;98.40;;;;;;5089874;28;20252;-69
2022/02/14 02:48:24;;;;;;;8.93;3.63;;;7.40;61.80;;;;;;5072573;28;20224;-69
2022/02/14 02:51:05;;;;;;;7.83;3.57;;;7.40;15.40;;;;;;5093096;28;20197;-69
2022/02/14 02:53:33;;;;;;;6.97;4.30;;;7.60;1.00;;;;;;5092625;28;20202;-69
2022/02/14 02:56:00;;;;;;;5.47;3.50;;;7.80;1.00;;;;;;5090995;28;20675;-69
2022/02/14 02:58:29;;;;;;;5.67;3.23;;;7.60;1.00;;;;;;5092296;28;20315;-69
2022/02/14 03:00:56;;;;;;;8.47;3.87;;;7.50;1.00;;;;;;5092384;28;20671;-69
2022/02/14 03:03:23;;;;;;;5.47;3.50;;;7.60;1.00;;;;;;5086560;28;20198;-69
2022/02/14 03:05:50;;;;;;;8.50;3.60;;;7.60;1.00;;;;;;5082629;28;20468;-69
2022/02/14 03:08:17;;;;;;;8.30;3.13;;;7.70;1.00;;;;;;5092751;28;20252;-68
2022/02/14 03:10:44;;;;;;;7.03;3.67;;;7.60;1.00;;;;;;5090656;28;20201;-68
2022/02/14 03:13:11;;;;;;;6.50;3.83;;;7.50;1.00;;;;;;5084933;28;20202;-69
2022/02/14 03:15:39;;;;;;;6.73;3.50;;;7.40;1.00;;;;;;5090260;28;20198;-68
2022/02/14 03:18:06;;;;;;;8.40;3.63;;;7.70;1.00;;;;;;5092708;28;20213;-69
2022/02/14 03:20:33;;;;;;;7.63;3.50;;;7.50;1.00;;;;;;5087223;28;20263;-69
2022/02/14 03:23:00;;;;;;;6.63;3.27;;;7.70;1.00;;;;;;5091718;28;20636;-68
2022/02/14 03:25:28;;;;;;;6.93;3.50;;;7.80;1.00;;;;;;5090748;28;20612;-69
2022/02/14 03:27:55;;;;;;;8.73;3.77;;;7.90;1.00;;;;;;5093212;28;20201;-68
2022/02/14 03:30:22;;;;;;;7.00;3.17;;;7.60;1.00;;;;;;5085881;28;20672;-69
2022/02/14 03:32:51;;;;;;;5.40;3.13;;;7.80;1.00;;;;;;5085244;28;20725;-69
2022/02/14 03:35:18;;;;;;;6.03;3.47;;;7.80;1.00;;;;;;5089409;28;20203;-69
2022/02/14 03:37:45;;;;;;;5.97;3.57;;;7.70;1.00;;;;;;5078464;28;20198;-69
2022/02/14 03:40:12;;;;;;;7.20;3.30;;;7.60;1.00;;;;;;5081689;28;20275;-69
2022/02/14 03:42:39;;;;;;;7.37;3.27;;;7.50;1.00;;;;;;5091495;28;20284;-68
2022/02/14 03:45:06;;;;;;;9.43;3.23;;;7.40;1.00;;;;;;5089820;28;20247;-69
2022/02/14 03:47:34;;;;;;;6.70;3.30;;;7.40;1.00;;;;;;5092747;28;20224;-68
2022/02/14 03:50:02;;;;;;;6.90;3.57;;;7.60;1.00;;;;;;5092427;28;20275;-68
2022/02/14 03:52:29;;;;;;;4.87;3.03;;;7.50;1.00;;;;;;5088882;28;20197;-69
2022/02/14 03:54:56;;;;;;;6.63;3.37;;;7.40;1.00;;;;;;5096969;28;20644;-69
2022/02/14 03:57:23;;;;;;;6.70;3.20;;;7.40;1.00;;;;;;5078267;28;20208;-69
2022/02/14 03:59:50;;;;;;;6.10;3.40;;;7.40;1.00;;;;;;5080393;28;20260;-69
2022/02/14 04:02:17;;;;;;;8.70;3.30;;;7.40;1.00;;;;;;5082718;28;20197;-68
2022/02/14 04:04:44;;;;;;;8.53;4.10;;;7.40;1.00;;;;;;5092187;28;20263;-68
2022/02/14 04:07:13;;;;;;;5.87;3.30;;;7.50;1.00;;;;;;5091718;28;20271;-69
2022/02/14 04:09:40;;;;;;;6.90;3.33;;;7.30;1.00;;;;;;5093507;28;20230;-68
2022/02/14 04:12:08;;;;;;;9.40;3.40;;;7.60;1.00;;;;;;5092833;28;20193;-69
2022/02/14 04:14:35;;;;;;;5.57;3.43;;;7.60;1.00;;;;;;5092493;28;20198;-68
2022/02/14 04:17:02;;;;;;;5.33;3.23;;;7.60;1.00;;;;;;5090835;28;20706;-69
2022/02/14 04:19:29;;;;;;;7.53;3.83;;;7.60;1.00;;;;;;5092909;28;20545;-68
2022/02/14 04:21:56;;;;;;;7.30;3.73;;;7.80;1.00;;;;;;5093020;28;20259;-69
2022/02/14 04:24:24;;;;;;;5.30;3.17;;;7.60;1.00;;;;;;5092954;28;20263;-68
2022/02/14 04:26:51;;;;;;;9.60;3.50;;;7.60;1.00;;;;;;5092772;28;20613;-69
2022/02/14 04:29:18;;;;;;;5.03;3.30;;;7.60;1.00;;;;;;5092858;28;20303;-69
2022/02/14 04:31:45;;;;;;;8.20;3.80;;;7.40;1.00;;;;;;5092797;28;20205;-69
2022/02/14 04:34:14;;;;;;;6.63;3.60;;;7.40;1.00;;;;;;5092588;28;20194;-69
2022/02/14 04:36:41;;;;;;;6.53;3.27;;;7.40;1.00;;;;;;5092553;28;20206;-69
2022/02/14 04:39:08;;;;;;;6.83;3.60;;;7.40;1.00;;;;;;5092961;28;20683;-69
2022/02/14 04:41:37;;;;;;;6.27;3.87;;;7.40;1.00;;;;;;5093158;28;20293;-69
2022/02/14 04:44:04;;;;;;;6.67;3.73;;;7.30;1.00;;;;;;5092415;28;20202;-69
2022/02/14 04:46:31;;;;;;;6.57;3.57;;;7.30;1.00;;;;;;5092260;28;20201;-69
2022/02/14 04:48:58;;;;;;;7.97;3.60;;;7.40;1.00;;;;;;5092808;28;20225;-69
2022/02/14 04:51:27;;;;;;;11.43;3.43;;;7.50;1.00;;;;;;5092499;28;20302;-69
2022/02/14 04:53:55;;;;;;;5.60;3.30;;;7.40;1.00;;;;;;5092548;28;20206;-69
2022/02/14 04:56:22;;;;;;;5.63;3.40;;;7.40;1.00;;;;;;5091654;28;20258;-69
2022/02/14 04:58:50;;;;;;;4.63;3.50;;;7.50;1.00;;;;;;5092236;28;20732;-68
2022/02/14 05:01:17;;;;;;;5.77;3.13;;;7.50;1.00;;;;;;5092261;28;20205;-69
2022/02/14 05:03:44;;;;;;;8.90;3.23;;;7.40;1.00;;;;;;5092396;28;20198;-69
2022/02/14 05:06:12;;;;;;;9.13;3.57;;;7.40;1.00;;;;;;5091793;28;20202;-68
2022/02/14 05:08:40;;;;;;;6.73;3.23;;;7.50;1.00;;;;;;5092177;28;20266;-68
2022/02/14 05:11:07;;;;;;;8.30;3.53;;;7.50;1.00;;;;;;5091827;28;20207;-68
2022/02/14 05:13:35;;;;;;;7.97;3.30;;;7.60;1.00;;;;;;5092080;28;20256;-68
2022/02/14 05:16:03;;;;;;;6.03;3.80;;;7.50;1.00;;;;;;5091720;28;20243;-69
2022/02/14 05:18:30;;;;;;;5.00;2.93;;;7.70;1.00;;;;;;5091956;28;20255;-68
2022/02/14 05:20:57;;;;;;;6.03;2.90;;;7.70;1.00;;;;;;5091846;28;20721;-68
2022/02/14 05:23:24;;;;;;;7.43;3.37;;;7.70;1.00;;;;;;5091808;28;20270;-69
2022/02/14 05:25:51;;;;;;;5.93;3.10;;;7.80;1.00;;;;;;5091341;28;20202;-69
2022/02/14 05:28:18;;;;;;;6.40;3.20;;;7.80;1.00;;;;;;5091725;28;20194;-69
2022/02/14 05:30:45;;;;;;;5.03;3.57;;;8.00;1.00;;;;;;5091522;28;20311;-69
2022/02/14 05:33:14;;;;;;;6.93;2.97;;;8.00;1.00;;;;;;5099593;28;20193;-68
2022/02/14 05:35:41;;;;;;;4.63;3.03;;;7.80;1.00;;;;;;5111846;28;20250;-69
2022/02/14 05:38:09;;;;;;;4.97;3.20;;;7.90;1.00;;;;;;5111821;28;20197;-68
2022/02/14 05:40:36;;;;;;;6.07;2.87;;;8.00;1.00;;;;;;5110535;28;20201;-68
2022/02/14 05:43:03;;;;;;;5.67;3.50;;;8.10;1.00;;;;;;5111804;28;20201;-69
2022/02/14 05:45:30;;;;;;;8.30;3.50;;;8.10;1.00;;;;;;5100263;28;20210;-69
2022/02/14 05:47:57;;;;;;;5.40;3.00;;;8.20;1.00;;;;;;5090860;28;20209;-69
2022/02/14 05:50:25;;;;;;;5.73;3.17;;;8.20;1.00;;;;;;5089336;28;20272;-69
2022/02/14 05:52:52;;;;;;;5.00;3.17;;;8.20;1.00;;;;;;5089184;28;20543;-68
2022/02/14 05:55:19;;;;;;;5.50;2.97;;;8.10;1.00;;;;;;5089459;28;20205;-69
2022/02/14 05:57:46;;;;;;;7.60;3.17;;;8.10;1.00;;;;;;5081513;28;20278;-69
2022/02/14 06:00:14;;;;;;;4.80;3.10;;;8.20;1.00;;;;;;5088258;28;20208;-68
2022/02/14 06:02:41;;;;;;;5.90;3.20;;;8.30;1.00;;;;;;5090541;28;20660;-69
2022/02/14 06:05:09;;;;;;;5.17;2.90;;;8.20;1.00;;;;;;5089485;28;20609;-69
2022/02/14 06:07:37;;;;;;;8.77;3.60;;;8.10;1.00;;;;;;5070217;28;20268;-69
2022/02/14 06:10:05;;;;;;;6.50;3.17;;;8.10;1.00;;;;;;5070072;28;20280;-69
2022/02/14 06:12:32;;;;;;;6.17;2.93;;;8.20;1.00;;;;;;5069397;28;20350;-68
2022/02/14 06:15:00;;;;;;;5.40;3.30;;;8.30;1.00;;;;;;5069833;28;20206;-68
2022/02/14 06:17:27;;;;;;;5.87;3.30;;;8.20;1.00;;;;;;5069636;28;20210;-68
2022/02/14 06:19:54;;;;;;;4.60;2.90;;;8.20;1.00;;;;;;5070495;28;20254;-69
2022/02/14 06:22:21;;;;;;;7.00;3.10;;;8.10;1.00;;;;;;5070454;28;20214;-69
2022/02/14 06:24:50;;;;;;;5.67;3.37;;;7.90;1.00;;;;;;5068926;28;20254;-68
2022/02/14 06:27:17;;;;;;;4.50;2.80;;;8.00;1.00;;;;;;5069419;28;20202;-69
2022/02/14 06:29:44;;;;;;;4.73;2.90;;;7.90;1.00;;;;;;5070507;28;20230;-68
2022/02/14 06:32:11;;;;;;;7.57;3.27;;;7.90;1.00;;;;;;5068667;28;20263;-68
2022/02/14 06:34:38;;;;;;;5.30;3.00;;;8.00;1.00;;;;;;5068258;28;20203;-69
2022/02/14 06:37:05;;;;;;;5.50;2.93;;;8.10;1.00;;;;;;5069779;28;20676;-69
2022/02/14 06:39:32;;;;;;;4.77;2.83;;;7.90;1.00;;;;;;5069558;28;20206;-69
2022/02/14 06:42:00;;;;;;;4.27;2.97;;;7.80;1.00;;;;;;5070529;28;20194;-69
2022/02/14 06:44:27;;;;;;;4.73;2.70;;;7.90;3.70;;;;;;5069881;28;20244;-69
2022/02/14 06:46:54;;;;;;;4.53;3.07;;;8.00;1.00;;;;;;5067282;28;20233;-69
2022/02/14 06:49:21;;;;;;;5.23;2.80;;;8.00;1.00;;;;;;5069717;28;20234;-69
2022/02/14 06:51:48;;;;;;;3.77;2.80;;;8.00;1.00;;;;;;5069864;28;20206;-69
2022/02/14 06:54:15;;;;;;;4.47;2.57;;;7.90;96.50;;;;;;5069672;28;20574;-68
2022/02/14 06:56:42;;;;;;;4.73;3.07;;;7.90;20.00;;;;;;5070345;28;20214;-69
2022/02/14 06:59:11;;;;;;;4.10;2.70;;;7.80;99.90;;;;;;5069051;28;20202;-69
2022/02/14 07:01:38;;;;;;;3.83;2.70;;;7.70;99.90;;;;;;5068508;28;20198;-69
2022/02/14 07:04:05;;;;;;;5.53;2.97;;;7.80;99.90;;;;;;5069886;28;20600;-68
2022/02/14 07:06:32;;;;;;;5.93;3.10;;;8.10;12.40;;;;;;5068850;28;20202;-69
2022/02/14 07:08:59;;;;;;;5.60;3.33;;;8.10;1.00;;;;;;5069914;28;20561;-73
2022/02/14 07:11:27;;;;;;;4.43;2.60;;;8.20;1.00;;;;;;5074451;28;20291;-72
2022/02/14 07:13:54;;;;;;;4.30;3.07;;;8.20;1.00;;;;;;5088131;28;20248;-73
2022/02/14 07:16:22;;;;;;;5.63;2.80;;;8.20;1.00;;;;;;5071168;28;20240;-72
2022/02/14 07:18:49;;;;;;;3.37;3.00;;;8.30;1.00;;;;;;5070598;28;20660;-72
2022/02/14 07:21:17;;;;;;;5.60;2.93;;;8.40;1.00;;;;;;5073706;28;20206;-72
2022/02/14 07:23:44;;;;;;;5.47;2.93;;;8.50;1.00;;;;;;5073200;28;20202;-72
2022/02/14 07:26:11;;;;;;;6.00;2.93;;;8.50;1.00;;;;;;5089011;28;20544;-72
2022/02/14 07:28:38;;;;;;;5.27;2.90;;;8.60;1.00;;;;;;5087111;28;20253;-72
2022/02/14 07:31:05;;;;;;;7.13;3.00;;;8.70;1.00;;;;;;5088890;28;20225;-73
2022/02/14 07:33:34;;;;;;;4.90;2.80;;;8.80;1.00;;;;;;5084242;28;20206;-73
2022/02/14 07:36:03;;;;;;;3.30;2.60;;;8.80;1.00;;;;;;5083300;28;20328;-73
2022/02/14 07:38:30;;;;;;;5.13;2.50;;;8.70;1.00;;;;;;5093511;28;20245;-73
2022/02/14 07:40:57;;;;;;;5.40;3.07;;;8.80;1.00;;;;;;5093927;28;20619;-72
2022/02/14 07:43:24;;;;;;;5.57;3.20;;;8.80;1.00;;;;;;5101079;28;20197;-73
2022/02/14 07:45:51;;;;;;;5.27;2.90;;;8.80;1.00;;;;;;5108651;28;20288;-73
2022/02/14 07:48:18;;;;;;;4.70;2.50;;;8.80;1.00;;;;;;5088419;28;20563;-72
2022/02/14 07:50:47;;;;;;;6.97;3.07;;;8.90;1.00;;;;;;5091959;28;20217;-73
2022/02/14 07:53:16;;;;;;;5.47;3.10;;;8.90;1.00;;;;;;5093329;28;20279;-73
2022/02/14 07:55:43;;;;;;;4.83;3.10;;;8.90;1.00;;;;;;5087904;28;20237;-72
2022/02/14 07:58:10;;;;;;;3.27;2.73;;;9.00;1.00;;;;;;5073113;28;20668;-72
2022/02/14 08:00:37;;;;;;;5.63;2.57;;;9.10;1.00;;;;;;5071998;28;20260;-72
2022/02/14 08:03:04;;;;;;;3.10;2.60;;;9.30;1.00;;;;;;5072910;28;20202;-73
2022/02/14 08:05:31;;;;;;;4.63;2.73;;;9.30;1.00;;;;;;5071628;28;20624;-72
2022/02/14 08:07:59;;;;;;;5.40;2.90;;;9.40;1.00;;;;;;5071111;28;20718;-72
2022/02/14 08:10:27;;;;;;;5.17;3.20;;;9.50;1.00;;;;;;5080478;28;20593;-73
2022/02/14 08:12:55;;;;;;;4.80;2.83;;;9.70;1.00;;;;;;5092682;28;20190;-72
2022/02/14 08:15:22;;;;;;;4.87;2.70;;;10.10;1.00;;;;;;5091692;28;20198;-72
2022/02/14 08:17:50;;;;;;;5.93;2.63;;;9.80;1.00;;;;;;5092183;28;20616;-72
2022/02/14 08:20:17;;;;;;;4.67;2.80;;;9.90;1.00;;;;;;5091664;28;20603;-73
2022/02/14 08:22:44;;;;;;;5.27;2.90;;;9.80;1.00;;;;;;5092635;28;20244;-73
2022/02/14 08:25:13;;;;;;;4.97;3.17;;;9.70;1.00;;;;;;5091241;28;20229;-73
2022/02/14 08:27:40;;;;;;;7.33;2.97;;;9.80;1.00;;;;;;5090140;28;20711;-72
2022/02/14 08:30:08;;;;;;;5.97;2.90;;;9.80;1.00;;;;;;5071421;28;20226;-72
2022/02/14 08:32:35;;;;;;;5.27;2.90;;;10.00;1.00;;;;;;5071296;28;20205;-73
2022/02/14 08:35:02;;;;;;;3.30;2.60;;;10.00;1.00;;;;;;5070442;28;20248;-72
2022/02/14 08:37:29;;;;;;;3.93;2.60;;;10.20;1.00;;;;;;5071012;28;20421;-73
2022/02/14 08:39:56;;;;;;;6.47;3.00;;;10.50;1.00;;;;;;5071422;28;20632;-72
2022/02/14 08:42:25;;;;;;;4.77;3.00;;;10.60;1.00;;;;;;5072157;28;20656;-73
2022/02/14 08:44:52;;;;;;;5.57;3.03;;;10.40;1.00;;;;;;5069383;28;20202;-73
2022/02/14 08:47:19;;;;;;;6.80;3.17;;;10.20;1.00;;;;;;5085741;28;20210;-73
2022/02/14 08:49:46;;;;;;;6.57;3.23;;;10.10;1.00;;;;;;5092247;28;20224;-73
2022/02/14 08:52:13;;;;;;;7.27;3.17;;;10.00;1.00;;;;;;5090977;28;20206;-73
2022/02/14 08:54:40;;;;;;;5.27;3.40;;;10.00;1.00;;;;;;5092073;28;20233;-73
2022/02/14 08:57:07;;;;;;;7.10;2.83;;;9.90;1.00;;;;;;5075002;28;20620;-72
2022/02/14 08:59:36;;;;;;;7.43;3.47;;;9.90;1.00;;;;;;5069989;28;20541;-72
2022/02/14 09:02:03;;;;;;;6.93;3.00;;;9.90;1.00;;;;;;5081513;28;20645;-73
2022/02/14 09:04:31;;;;;;;5.93;2.70;;;9.90;1.00;;;;;;5092613;28;20228;-72
2022/02/14 09:06:58;;;;;;;7.77;2.67;;;10.00;1.00;;;;;;5090865;28;20206;-73
2022/02/14 09:09:25;;;;;;;4.40;2.63;;;10.00;1.00;;;;;;5089922;28;20205;-72
2022/02/14 09:11:52;;;;;;;5.57;2.40;;;10.00;1.00;;;;;;5070954;28;20230;-73
2022/02/14 09:14:19;;;;;;;5.30;3.23;;;10.30;1.00;;;;;;5070347;28;20198;-73
2022/02/14 09:16:49;;;;;;;5.93;2.70;;;10.60;1.00;;;;;;5079742;28;20636;-73
2022/02/14 09:19:16;;;;;;;6.47;2.60;;;11.00;1.00;;;;;;5091943;28;20198;-73
2022/02/14 09:21:43;;;;;;;6.03;2.70;;;11.30;1.00;;;;;;5091242;28;20232;-73
2022/02/14 09:24:12;;;;;;;5.90;3.03;;;11.40;1.00;;;;;;5090868;28;20296;-73
2022/02/14 09:26:40;;;;;;;3.27;2.60;;;11.30;1.00;;;;;;5090914;28;20197;-72
2022/02/14 09:29:08;;;;;;;4.30;2.50;;;11.20;1.00;;;;;;5091502;28;20263;-72
2022/02/14 09:31:35;;;;;;;5.23;2.67;;;11.30;1.00;;;;;;5070991;28;20279;-73
2022/02/14 09:34:04;;;;;;;4.87;2.90;;;11.40;1.00;;;;;;5069725;28;20229;-73
2022/02/14 09:36:31;;;;;;;5.60;2.57;;;11.50;1.00;;;;;;5070569;28;20202;-72
2022/02/14 09:38:58;;;;;;;4.23;2.80;;;11.50;1.00;;;;;;5070526;28;20198;-72
2022/02/14 09:41:27;;;;;;;6.40;2.50;;;11.60;1.00;;;;;;5069214;28;20207;-73
2022/02/14 09:43:54;;;;;;;4.17;2.57;;;11.60;1.00;;;;;;5068762;28;20276;-72
2022/02/14 09:46:22;;;;;;;6.23;2.70;;;11.60;1.00;;;;;;5069560;28;20653;-72
2022/02/14 09:48:50;;;;;;;6.37;2.90;;;11.70;1.00;;;;;;5089326;28;20233;-73
2022/02/14 09:51:18;;;;;;;5.40;2.70;;;12.00;1.00;;;;;;5090141;28;20687;-72
2022/02/14 09:53:45;;;;;;;6.57;2.93;;;12.00;1.00;;;;;;5072237;28;20248;-72
2022/02/14 09:56:13;;;;;;;6.67;2.93;;;12.00;1.00;;;;;;5079932;28;20693;-72
2022/02/14 09:58:40;;;;;;;5.10;2.53;;;11.90;1.00;;;;;;5090488;28;20198;-73
2022/02/14 10:01:07;;;;;;;4.73;2.60;;;12.20;1.00;;;;;;5085006;28;20279;-73
2022/02/14 10:03:35;;;;;;;3.83;2.60;;;12.30;1.00;;;;;;5071144;28;20264;-73
2022/02/14 10:06:03;;;;;;;4.47;2.60;;;12.20;1.00;;;;;;5072626;28;20667;-72
2022/02/14 10:08:35;;;;;;;4.07;2.60;;;12.10;1.00;;;;;;5091249;28;20675;-72
2022/02/14 10:11:13;;;;;;;3.10;2.40;;;12.50;1.00;;;;;;5089347;28;20213;-72
2022/02/14 10:13:41;;;;;;;4.77;3.00;;;12.70;1.00;;;;;;5088839;28;20201;-72
2022/02/14 10:16:09;;;;;;;5.43;2.37;;;12.60;1.00;;;;;;5089494;28;20205;-71
2022/02/14 10:18:37;;;;;;;6.07;2.40;;;12.80;1.00;;;;;;5089788;28;20197;-72
2022/02/14 10:21:18;;;;;;;4.33;2.07;;;13.00;99.90;;;;;;5089220;28;20256;-71
2022/02/14 10:24:03;;;;;;;7.53;2.50;;;12.90;1.00;;;;;;5089206;28;20663;-71
2022/02/14 10:26:31;;;;;;;5.43;2.60;;;12.80;1.00;;;;;;5091213;28;20197;-71
2022/02/14 10:28:58;;;;;;;4.30;2.50;;;13.10;1.00;;;;;;5091333;28;20244;-71
2022/02/14 10:31:25;;;;;;;3.63;2.47;;;12.80;1.00;;;;;;5090624;28;20679;-70
2022/02/14 10:33:54;;;;;;;6.33;2.87;;;12.90;1.00;;;;;;5091122;28;20198;-68
2022/02/14 10:36:27;;;;;;;4.30;2.53;;;12.60;1.00;;;;;;5090858;28;20600;-68
2022/02/14 10:38:54;;;;;;;3.37;2.33;;;12.50;1.00;;;;;;5090807;28;20200;-68
2022/02/14 10:41:23;;;;;;;5.87;2.60;;;12.50;1.00;;;;;;5090840;28;20298;-68
2022/02/14 10:43:50;;;;;;;4.30;2.23;;;12.30;1.00;;;;;;5090834;28;20198;-68
2022/02/14 10:46:22;;;;;;;3.63;2.77;;;12.30;1.00;;;;;;5090594;28;20197;-68
2022/02/14 10:48:54;;;;;;;7.40;2.90;;;12.20;1.00;;;;;;5090880;28;20296;-68
2022/02/14 10:51:22;;;;;;;4.50;2.40;;;12.40;1.00;;;;;;5090874;28;20225;-68
2022/02/14 10:53:51;;;;;;;6.50;2.73;;;12.40;1.00;;;;;;5091799;28;20198;-68
2022/02/14 10:56:19;;;;;;;4.07;2.50;;;12.70;1.00;;;;;;5094697;28;20221;-68
2022/02/14 10:58:49;;;;;;;8.10;2.47;;;12.80;1.00;;;;;;5094355;28;20202;-68
2022/02/14 11:01:17;;;;;;;5.60;2.37;;;13.10;1.00;;;;;;5094624;28;20209;-68
2022/02/14 11:03:45;;;;;;;5.03;2.33;;;12.80;1.00;;;;;;5094294;28;20231;-68
2022/02/14 11:06:12;;;;;;;3.50;2.10;;;12.70;1.00;;;;;;5094259;28;20205;-68
2022/02/14 11:08:41;;;;;;;3.87;2.13;;;12.60;1.00;;;;;;5094621;28;20592;-68
2022/02/14 11:11:10;;;;;;;5.83;2.70;;;12.50;1.00;;;;;;5094555;28;20562;-68
2022/02/14 11:13:39;;;;;;;3.77;2.40;;;12.40;1.00;;;;;;5094483;28;20709;-68
2022/02/14 11:16:09;;;;;;;6.23;2.67;;;12.40;1.00;;;;;;5093874;28;20690;-68
2022/02/14 11:18:40;;;;;;;7.50;2.60;;;12.40;1.00;;;;;;5094199;28;20201;-68
2022/02/14 11:21:07;;;;;;;4.67;2.40;;;12.60;1.00;;;;;;5094099;28;20202;-68
2022/02/14 11:23:41;;;;;;;5.17;2.40;;;12.70;1.00;;;;;;5094290;28;20263;-68
2022/02/14 11:26:16;;;;;;;5.53;2.30;;;12.80;1.00;;;;;;5093812;28;20207;-68
2022/02/14 11:28:49;;;;;;;3.77;2.40;;;12.90;1.00;;;;;;5094064;28;20250;-68
2022/02/14 11:31:18;;;;;;;5.63;2.33;;;12.90;1.00;;;;;;5093849;28;20221;-69
2022/02/14 11:33:53;;;;;;;6.30;2.37;;;12.90;1.00;;;;;;5094013;28;20667;-68
2022/02/14 11:36:21;;;;;;;5.03;2.23;;;13.10;1.00;;;;;;5092271;28;20201;-68
2022/02/14 11:38:51;;;;;;;3.77;1.93;;;13.60;1.00;;;;;;5093948;28;20205;-68
2022/02/14 11:41:27;;;;;;;7.43;2.20;;;13.90;1.00;;;;;;5093619;28;20727;-68
2022/02/14 11:43:55;;;;;;;4.40;2.60;;;14.20;1.00;;;;;;5093746;28;20201;-68
2022/02/14 11:46:28;;;;;;;3.80;2.40;;;14.20;1.00;;;;;;5093367;28;20233;-68
2022/02/14 11:49:23;;;;;;;4.37;2.00;;;14.40;1.00;;;;;;5093988;28;20210;-68
2022/02/14 11:51:53;;;;;;;4.47;2.13;;;14.50;1.00;;;;;;5057502;28;20414;-68
2022/02/14 11:54:32;;;;;;;4.47;2.27;;;14.50;99.90;;;;;;5094017;28;20570;-68
2022/02/14 11:57:31;;;;;;;3.23;2.00;;;14.70;99.90;;;;;;5093251;28;20203;-69
2022/02/14 12:00:27;;;;;;;4.13;2.73;;;14.60;99.90;;;;;;5059351;28;20201;-69
2022/02/14 12:03:12;;;;;;;3.53;2.17;;;14.50;99.90;;;;;;5093334;28;20205;-69
2022/02/14 12:05:40;;;;;;;5.13;2.30;;;13.80;1.00;;;;;;5092025;28;20621;-69
2022/02/14 12:08:07;;;;;;;4.37;2.33;;;13.60;1.00;;;;;;5093340;28;20219;-69
2022/02/14 12:10:48;;;;;;;3.40;2.00;;;13.60;1.00;;;;;;5093158;28;20279;-69
2022/02/14 12:13:21;;;;;;;2.40;1.70;;;13.80;1.00;;;;;;5093004;28;20205;-69
2022/02/14 12:21:32;;;;;;;2.67;2.10;;;13.70;1.00;;;;;;5076439;28;20221;-70
2022/02/14 12:24:11;;;;;;;5.87;2.30;;;13.60;1.00;;;;;;5072916;28;20268;-69
2022/02/14 12:26:38;;;;;;;6.03;1.87;;;13.50;1.00;;;;;;5097012;28;20209;-69
2022/02/14 12:31:53;;;;;;;3.43;1.70;;;13.30;1.00;;;;;;5111400;28;20223;-69
2022/02/14 12:34:29;;;;;;;3.87;2.10;;;13.30;1.00;;;;;;5099160;28;20259;-69
2022/02/14 12:36:59;;;;;;;2.10;1.90;;;13.40;1.00;;;;;;5091088;28;20197;-69
2022/02/14 12:39:31;;;;;;;4.17;2.03;;;13.40;1.00;;;;;;5080644;28;20656;-69
2022/02/14 12:41:58;;;;;;;5.67;2.17;;;13.40;1.00;;;;;;5072185;28;20203;-69
2022/02/14 12:44:30;;;;;;;2.90;2.17;;;13.40;1.00;;;;;;5070989;28;20217;-69
2022/02/14 12:46:58;;;;;;;4.70;1.97;;;13.40;1.00;;;;;;5084994;28;20653;-69
2022/02/14 12:49:27;;;;;;;4.17;2.20;;;13.60;1.00;;;;;;5094744;28;20202;-69
2022/02/14 12:51:54;;;;;;;3.60;2.07;;;13.60;1.00;;;;;;5071637;28;20288;-69
2022/02/14 12:54:21;;;;;;;3.93;2.30;;;13.60;1.00;;;;;;5070630;28;20256;-69
2022/02/14 12:56:48;;;;;;;5.73;2.20;;;14.00;1.00;;;;;;5071435;28;20651;-69
2022/02/14 12:59:15;;;;;;;3.90;1.73;;;14.30;1.00;;;;;;5070084;28;20282;-69
2022/02/14 13:01:43;;;;;;;4.43;1.80;;;15.80;99.90;;;;;;5091844;28;20656;-70
2022/02/14 13:04:11;;;;;;;5.63;1.77;;;15.00;1.00;;;;;;5090996;28;20707;-70
2022/02/14 13:06:41;;;;;;;4.00;1.70;;;16.80;99.90;;;;;;5091263;28;20205;-70
2022/02/14 13:09:23;;;;;;;3.90;1.90;;;16.90;99.90;;;;;;5092127;28;20723;-69
2022/02/14 13:11:52;;;;;;;2.60;1.97;;;15.60;99.90;;;;;;5091507;28;20315;-69
2022/02/14 13:14:31;;;;;;;5.33;2.13;;;16.80;99.90;;;;;;5090874;28;20657;-69
2022/02/14 13:16:59;;;;;;;3.25;2.13;;;17.50;99.90;;;;;;5089165;28;20194;-69
2022/02/14 13:19:26;;;;;;;4.85;1.80;;;17.10;82.70;;;;;;5090177;28;20445;-69